Main page
METAR-TAF:

METAR-TAF

Airports :

Larnaca International Airport

Larnaca, Cyprus

latitude: 34-53N, longitude: 033-38E, elevation: 2 m

Current weather observation

The report was made 35 minutes ago, at 05:30 UTC
Wind 4 kt from the South/Southwest, varying between South/Southeast and West
Temperature 24°C
Humidity 69%
Pressure 1011 hPa
Visibility 10 km or more
Few clouds at a height of 2000 ft

METAR: LCLK 150530Z 20004KT 160V260 9999 FEW020 24/18 Q1011 NOSIG

Time: 09:05 (06:05 UTC)

Forecast

The report was made 35 minutes ago, at 05:30 UTC
Forecast valid from 15 at 06 UTC to 16 at 06 UTC
Wind 6 kt from the South
Visibility 10 km or more
Few clouds at a height of 2000 ft
Becoming
from 15 at 08 UTC to 15 at 11 UTC
Wind 18 kt from the Southwest
Becoming
from 15 at 19 UTC to 15 at 22 UTC
Wind 6 kt from the Northwest

TAF: LCLK 150530Z 1506/1606 18006KT 9999 FEW020 BECMG 1508/1511 22018KT BECMG 1519/1522 32006KT

Weather observations and forecasts of more than 4000 airports (METAR and TAF reports).

The available stations are represented by yellow and red dots on the map.

Hover mouse over dot to see the name of the station.

Then click to see weather observations and forecasts.

To change the map : click on the green buttons with a black cross to zoom in, on the green button with a dash to zoom out, or on the green arrows for adjacent maps.


METAR-TAF: